Terminal Aerodrome Forecast
Issued by NWS Newport/Morehead City, NC

Home | Current Version | Previous Version | Text Only | Print | Product List | Glossary Off
Versions: 1 2 3 4 5 6 7 8 9 10 11 12 13 14 15 16 17 18 19 20 21 22

000
FTUS42 KMHX 231452 AAA
TAFEWN
TAF AMD
KEWN 231452Z 2315/2412 23010G16KT P6SM SCT015
     FM231800 25005KT P6SM VCSH BKN035
     FM240000 29008KT P6SM BKN015=

USA.gov is the U.S. government's official web portal to all federal, state and local government web resources and services.